Time;durP1;ratioP1;P1;durP2;ratioP2;P2;SDS_P1;SDS_P2;PMS_P1;PMS_P2;Temp;Humidity;BMP_temperature;BMP_pressure;BME280_temperature;BME280_humidity;BME280_pressure;Samples;Min_cycle;Max_cycle;Signal;HPM_P1;HPM_P2
2023/09/26 00:00:28;;;;;;;22.08;6.57;;;;;;;-144.30;69.65;84674.88;5071330;28;20202;-58
2023/09/26 00:02:55;;;;;;;18.75;6.60;;;;;;;-144.30;69.58;84664.94;5071345;28;20287;-59
2023/09/26 00:05:23;;;;;;;18.30;5.65;;;;;;;-144.30;69.68;84678.84;5071355;28;20287;-59
2023/09/26 00:07:51;;;;;;;17.10;6.13;;;;;;;-144.30;69.78;84684.81;5071348;28;20668;-59
2023/09/26 00:10:18;;;;;;;13.98;6.40;;;;;;;-144.30;70.10;84657.00;5071269;28;20192;-58
2023/09/26 00:12:47;;;;;;;18.45;6.68;;;;;;;-144.30;69.95;84589.41;5070908;28;20249;-59
2023/09/26 00:15:14;;;;;;;8.40;6.35;;;;;;;-144.30;70.13;84688.81;5071123;28;20586;-58
2023/09/26 00:17:41;;;;;;;14.90;6.35;;;;;;;-144.30;70.13;84674.88;5071107;28;20602;-58
2023/09/26 00:20:27;;;;;;;13.70;6.70;;;;;;;-144.30;70.47;84678.84;5071282;28;20215;-58
2023/09/26 00:22:54;;;;;;;20.83;7.43;;;;;;;-144.30;71.17;84696.75;5070935;28;20202;-58
2023/09/26 00:25:21;;;;;;;20.98;10.57;;;;;;;-144.30;71.51;84670.91;5071048;28;20191;-57
2023/09/26 00:27:50;;;;;;;31.67;14.85;;;;;;;-144.30;71.67;84678.84;5070718;28;20192;-58
2023/09/26 00:30:17;;;;;;;31.10;14.90;;;;;;;-144.30;71.79;84716.63;5071071;28;20711;-58
2023/09/26 00:32:44;;;;;;;27.80;12.20;;;;;;;-144.30;72.22;84748.44;5070762;28;20639;-58
2023/09/26 00:35:12;;;;;;;17.23;9.48;;;;;;;-144.30;72.78;84752.41;5070805;28;20290;-65
2023/09/26 00:37:39;;;;;;;21.10;8.52;;;;;;;-144.30;73.38;84814.00;5070562;28;20196;-65
2023/09/26 00:40:12;;;;;;;16.73;7.15;;;;;;;-144.30;73.42;84804.06;5070948;28;20598;-59
2023/09/26 00:42:39;;;;;;;15.10;6.80;;;;;;;-144.30;73.81;84816.00;5070477;28;20199;-65
2023/09/26 00:45:08;;;;;;;18.70;7.03;;;;;;;-144.30;74.19;84831.91;5070957;28;20223;-65
2023/09/26 00:47:36;;;;;;;8.70;6.47;;;;;;;-144.30;74.61;84847.81;5070273;28;20279;-58
2023/09/26 00:50:05;;;;;;;16.75;7.20;;;;;;;-144.30;75.11;84841.84;5070487;28;20192;-59
2023/09/26 00:52:32;;;;;;;15.40;6.97;;;;;;;-144.30;75.39;84865.69;5069917;28;20756;-59
2023/09/26 00:55:02;;;;;;;15.80;7.18;;;;;;;-144.30;75.83;84871.66;5070304;28;20204;-58
2023/09/26 00:57:29;;;;;;;15.68;7.22;;;;;;;-144.30;76.50;84899.47;5070153;28;20253;-58
2023/09/26 00:59:56;;;;;;;15.35;7.28;;;;;;;-144.30;76.88;84877.63;5070290;28;20192;-58
2023/09/26 01:02:25;;;;;;;19.15;7.40;;;;;;;-144.30;77.28;84907.44;5070062;28;20202;-59
2023/09/26 01:04:52;;;;;;;16.67;7.43;;;;;;;-144.30;77.47;84915.38;5069949;28;20203;-58
2023/09/26 01:07:19;;;;;;;18.05;7.10;;;;;;;-144.30;77.70;84915.38;5070066;28;20695;-58
2023/09/26 01:09:46;;;;;;;12.25;7.22;;;;;;;-144.30;77.33;84871.66;5069920;28;20218;-59
2023/09/26 01:12:13;;;;;;;13.93;6.80;;;;;;;-144.30;77.80;84883.59;5070170;28;20292;-59
2023/09/26 01:14:40;;;;;;;14.10;7.10;;;;;;;-144.30;78.30;84953.16;5069714;28;20234;-66
2023/09/26 01:17:07;;;;;;;16.65;7.28;;;;;;;-144.30;78.89;84963.09;5070044;28;20200;-66
2023/09/26 01:19:36;;;;;;;12.90;7.05;;;;;;;-144.30;78.86;84961.09;5069498;28;20231;-66
2023/09/26 01:22:03;;;;;;;13.77;7.40;;;;;;;-144.30;79.34;84951.16;5069780;28;20196;-66
2023/09/26 01:24:33;;;;;;;11.77;7.15;;;;;;;-144.30;79.50;84943.22;5069763;28;20195;-59
2023/09/26 01:27:01;;;;;;;11.75;6.93;;;;;;;-144.30;79.25;84957.13;5069741;28;20229;-59
2023/09/26 01:29:27;;;;;;;12.93;7.22;;;;;;;-144.30;79.01;84959.13;5069905;28;20217;-58
2023/09/26 01:31:54;;;;;;;14.48;7.38;;;;;;;-144.30;79.05;84967.06;5069671;28;20196;-59
2023/09/26 01:34:21;;;;;;;19.40;7.43;;;;;;;-144.30;78.31;84957.13;5069609;28;20283;-59
2023/09/26 01:36:48;;;;;;;13.38;7.15;;;;;;;-144.30;78.36;84994.91;5069402;28;21147;-56
2023/09/26 01:39:15;;;;;;;14.55;7.28;;;;;;;-144.30;78.37;84984.97;5069684;28;20422;-58
2023/09/26 01:41:43;;;;;;;14.63;7.18;;;;;;;-144.30;77.97;84992.91;5069705;28;20203;-59
2023/09/26 01:44:10;;;;;;;7.13;6.43;;;;;;;-144.30;77.99;84959.13;5069341;28;20627;-58
2023/09/26 01:46:37;;;;;;;11.90;7.10;;;;;;;-144.30;77.99;85000.84;5069232;28;20195;-59
2023/09/26 01:49:04;;;;;;;12.00;6.93;;;;;;;-144.30;78.27;84994.91;5069205;28;20196;-59
2023/09/26 01:51:31;;;;;;;14.77;7.28;;;;;;;-144.30;77.79;85002.84;5069129;28;20235;-59
2023/09/26 01:53:58;;;;;;;12.27;6.95;;;;;;;-144.30;77.48;85014.78;5069511;28;20200;-58
2023/09/26 01:56:24;;;;;;;11.85;6.95;;;;;;;-144.30;77.46;85006.81;5069524;28;20618;-66
2023/09/26 01:58:52;;;;;;;15.45;6.13;;;;;;;-144.30;77.31;84994.91;5069096;28;20223;-66
2023/09/26 02:01:19;;;;;;;14.43;7.25;;;;;;;-144.30;77.49;85036.63;5069438;28;20274;-60
2023/09/26 02:03:46;;;;;;;16.08;7.72;;;;;;;-144.30;78.13;85018.75;5069405;28;20196;-58
2023/09/26 02:06:13;;;;;;;14.68;6.78;;;;;;;-144.30;78.51;85036.63;5069623;28;20583;-58
2023/09/26 02:08:40;;;;;;;12.73;7.97;;;;;;;-144.30;78.74;85028.69;5068999;28;20287;-65
2023/09/26 02:11:06;;;;;;;9.35;6.47;;;;;;;-144.30;78.69;85026.69;5069210;28;20231;-65
2023/09/26 02:13:33;;;;;;;16.90;7.22;;;;;;;-144.30;78.74;85032.66;5068598;28;20237;-65
2023/09/26 02:16:02;;;;;;;11.93;7.72;;;;;;;-144.30;78.93;85022.72;5069182;28;20202;-66
2023/09/26 02:18:29;;;;;;;11.77;6.85;;;;;;;-144.30;78.81;85018.75;5068872;28;20606;-65
2023/09/26 02:20:56;;;;;;;11.25;6.78;;;;;;;-144.30;78.50;85010.78;5069191;28;20196;-65
2023/09/26 02:23:22;;;;;;;15.32;7.72;;;;;;;-144.30;78.25;85012.78;5069224;28;20676;-65
2023/09/26 02:25:51;;;;;;;16.98;8.38;;;;;;;-144.30;77.69;84992.91;5068905;28;20554;-64
2023/09/26 02:28:18;;;;;;;12.07;8.68;;;;;;;-144.30;77.47;84935.25;5068833;28;20195;-59
2023/09/26 02:30:45;;;;;;;16.00;9.07;;;;;;;-144.30;77.21;84982.97;5068912;28;20191;-59
2023/09/26 02:33:14;;;;;;;16.75;9.15;;;;;;;-144.30;77.53;84979.00;5069027;28;20231;-59
2023/09/26 02:35:41;;;;;;;18.65;10.25;;;;;;;-144.30;77.79;84986.94;5068800;28;20192;-58
2023/09/26 02:38:08;;;;;;;14.35;8.65;;;;;;;-144.30;77.89;84986.94;5068897;28;20214;-64
2023/09/26 02:40:35;;;;;;;13.32;8.40;;;;;;;-144.30;78.79;84971.03;5068662;28;20200;-65
2023/09/26 02:43:02;;;;;;;14.95;8.43;;;;;;;-144.30;79.12;84963.09;5068849;28;20196;-64
2023/09/26 02:45:30;;;;;;;15.32;8.65;;;;;;;-144.30;78.57;84998.88;5068731;28;20207;-64
2023/09/26 02:47:57;;;;;;;19.17;9.07;;;;;;;-144.30;78.10;84979.00;5069039;28;20195;-65
2023/09/26 02:50:25;;;;;;;18.05;8.68;;;;;;;-144.30;78.01;84975.00;5068849;28;20200;-64
2023/09/26 02:52:52;;;;;;;14.45;7.95;;;;;;;-144.30;77.89;84963.09;5068640;28;20539;-66
2023/09/26 02:55:20;;;;;;;16.65;8.60;;;;;;;-144.30;78.25;84992.91;5068730;28;20211;-67
2023/09/26 02:57:47;;;;;;;15.15;8.43;;;;;;;-144.30;78.96;84998.88;5071896;28;20199;-65
2023/09/26 03:00:16;;;;;;;13.43;7.78;;;;;;;-144.30;79.36;85002.84;5072515;28;20226;-65
2023/09/26 03:02:44;;;;;;;13.88;7.28;;;;;;;-144.30;79.20;85018.75;5072379;28;20596;-65
2023/09/26 03:05:11;;;;;;;14.30;8.55;;;;;;;-144.30;78.98;85016.75;5072516;28;20196;-66
2023/09/26 03:07:40;;;;;;;18.10;7.38;;;;;;;-144.30;79.10;85010.78;5072021;28;20196;-59
2023/09/26 03:10:08;;;;;;;12.68;6.93;;;;;;;-144.30;78.85;85012.78;5072370;28;20202;-57
2023/09/26 03:12:35;;;;;;;12.05;7.00;;;;;;;-144.30;79.13;85032.66;5071883;28;20610;-58
2023/09/26 03:15:03;;;;;;;12.20;7.10;;;;;;;-144.30;79.02;85050.53;5071231;28;20219;-58
2023/09/26 03:17:30;;;;;;;14.88;7.40;;;;;;;-144.30;78.86;85076.38;5072249;28;20204;-60
2023/09/26 03:19:57;;;;;;;11.85;7.75;;;;;;;-144.30;78.91;85056.50;5072257;28;20297;-66
2023/09/26 03:22:24;;;;;;;14.57;7.80;;;;;;;-144.30;79.11;85050.53;5072357;28;20195;-66
2023/09/26 03:24:52;;;;;;;11.55;8.00;;;;;;;-144.30;79.25;85066.44;5071666;28;20288;-67
2023/09/26 03:27:19;;;;;;;15.50;8.25;;;;;;;-144.30;79.50;85110.19;5072393;28;20211;-68
2023/09/26 03:29:46;;;;;;;14.63;7.85;;;;;;;-144.30;79.61;85114.16;5072447;28;20656;-67
2023/09/26 03:32:13;;;;;;;13.45;7.13;;;;;;;-144.30;79.55;85136.03;5072012;28;20196;-66
2023/09/26 03:34:40;;;;;;;15.95;7.90;;;;;;;-144.30;79.27;85116.16;5071817;28;20196;-57
2023/09/26 03:37:07;;;;;;;15.30;7.45;;;;;;;-144.30;79.61;85118.13;5071516;28;20196;-57
2023/09/26 03:39:34;;;;;;;10.18;7.60;;;;;;;-144.30;79.95;85124.09;5070686;28;20215;-57
2023/09/26 03:42:02;;;;;;;17.60;8.43;;;;;;;-144.30;80.02;85122.09;5071231;28;20196;-57
2023/09/26 03:44:29;;;;;;;8.98;7.38;;;;;;;-144.30;80.09;85116.16;5070807;28;20196;-58
2023/09/26 03:46:55;;;;;;;17.33;7.88;;;;;;;-144.30;79.95;85104.22;5071101;28;20188;-57
2023/09/26 03:49:22;;;;;;;18.65;8.63;;;;;;;-144.30;80.17;85130.06;5071591;28;20192;-58
2023/09/26 03:51:49;;;;;;;15.70;7.32;;;;;;;-144.30;80.14;85116.16;5071745;28;20206;-66
2023/09/26 03:54:17;;;;;;;28.05;8.63;;;;;;;-144.30;79.91;85122.09;5071583;28;20202;-66
2023/09/26 03:56:44;;;;;;;22.38;8.45;;;;;;;-144.30;79.39;85098.25;5071643;28;20295;-66
2023/09/26 03:59:14;;;;;;;13.68;7.88;;;;;;;-144.30;79.10;85094.28;5071689;28;20216;-67
2023/09/26 04:01:42;;;;;;;19.10;9.75;;;;;;;-144.30;78.79;85090.31;5070913;28;20230;-58
2023/09/26 04:04:09;;;;;;;14.30;9.15;;;;;;;-144.30;78.92;85050.53;5071465;28;20196;-57
2023/09/26 04:06:36;;;;;;;18.83;9.73;;;;;;;-144.30;79.14;85098.25;5070976;28;20672;-66
2023/09/26 04:09:03;;;;;;;22.23;10.88;;;;;;;-144.30;79.37;85094.28;5071526;28;20682;-63
2023/09/26 04:11:30;;;;;;;11.30;8.68;;;;;;;-144.30;79.56;85090.31;5071583;28;20554;-63
2023/09/26 04:13:57;;;;;;;23.23;10.75;;;;;;;-144.30;79.54;85074.41;5070789;28;20235;-66
2023/09/26 04:16:25;;;;;;;24.75;11.18;;;;;;;-144.30;79.69;85064.47;5070525;28;20206;-57
2023/09/26 04:18:52;;;;;;;20.90;12.63;;;;;;;-144.30;80.22;85082.34;5070444;28;20302;-57
2023/09/26 04:21:19;;;;;;;46.47;22.65;;;;;;;-144.30;80.68;85106.22;5069338;28;20278;-66
2023/09/26 04:23:46;;;;;;;21.73;14.20;;;;;;;-144.30;80.56;85118.13;5069281;28;20207;-66
2023/09/26 04:26:15;;;;;;;27.50;12.23;;;;;;;-144.30;80.50;85082.34;5070798;28;20585;-66
2023/09/26 04:28:42;;;;;;;26.48;16.23;;;;;;;-144.30;80.26;85074.41;5069611;28;20218;-66
2023/09/26 04:31:13;;;;;;;19.13;12.18;;;;;;;-144.30;79.89;85084.34;5066621;28;20207;-67
2023/09/26 04:33:41;;;;;;;17.80;13.27;;;;;;;-144.30;79.66;85072.41;5069805;28;20208;-68
2023/09/26 04:36:09;;;;;;;26.83;16.85;;;;;;;-144.30;79.88;85036.63;5070586;28;20688;-68
2023/09/26 04:38:36;;;;;;;30.15;16.02;;;;;;;-144.30;80.08;85487.88;5058362;28;20223;-58
2023/09/26 04:41:03;;;;;;;18.08;10.70;;;;;;;-144.30;79.94;85028.69;5070652;28;20234;-58
2023/09/26 04:43:31;;;;;;;20.83;13.25;;;;;;;-144.30;80.41;85074.41;5070603;28;20645;-58
2023/09/26 04:45:58;;;;;;;19.65;13.40;;;;;;;-144.30;80.63;85058.50;5069722;28;20218;-58
2023/09/26 04:48:25;;;;;;;18.25;10.45;;;;;;;-144.30;80.84;85068.44;5070388;28;20212;-68
2023/09/26 04:50:54;;;;;;;15.90;9.57;;;;;;;-144.30;80.88;85058.50;5070574;28;20257;-68
2023/09/26 04:53:22;;;;;;;24.65;10.23;;;;;;;-144.30;80.90;85040.59;5070348;28;20192;-67
2023/09/26 04:55:49;;;;;;;29.80;13.95;;;;;;;-144.30;81.01;85074.41;5070211;28;20196;-67
2023/09/26 04:58:15;;;;;;;22.73;10.82;;;;;;;-144.30;80.89;85106.22;5070629;28;20567;-68
2023/09/26 05:00:42;;;;;;;22.92;11.98;;;;;;;-144.30;80.87;85054.53;5069578;28;20219;-67
2023/09/26 05:03:09;;;;;;;15.00;10.20;;;;;;;-144.30;80.40;85060.50;5070197;28;20203;-57
2023/09/26 05:05:36;;;;;;;21.02;10.00;;;;;;;-144.30;80.13;85028.69;5070099;28;20202;-59
2023/09/26 05:08:05;;;;;;;14.82;9.80;;;;;;;-144.30;80.22;85046.56;5070222;28;20196;-67
2023/09/26 05:10:32;;;;;;;23.50;9.65;;;;;;;-144.30;79.83;85030.66;5070228;28;20588;-67
2023/09/26 05:12:59;;;;;;;20.98;9.57;;;;;;;-144.30;79.50;85028.69;5069846;28;20596;-66
2023/09/26 05:15:26;;;;;;;17.38;9.25;;;;;;;-144.30;79.24;85018.75;5069577;28;20290;-68
2023/09/26 05:17:53;;;;;;;19.77;9.55;;;;;;;-144.30;79.16;85006.81;5069438;28;20286;-68
2023/09/26 05:20:20;;;;;;;20.60;9.35;;;;;;;-144.30;78.57;84979.00;5068912;28;20226;-68
2023/09/26 05:22:48;;;;;;;17.73;9.65;;;;;;;-144.30;77.35;84911.41;5069767;28;20192;-68
2023/09/26 05:25:17;;;;;;;13.38;8.80;;;;;;;-144.30;76.68;84889.53;5069986;28;20192;-68
2023/09/26 05:27:44;;;;;;;14.55;9.32;;;;;;;-144.30;76.54;84965.06;5069597;28;20199;-68
2023/09/26 05:30:13;;;;;;;20.85;9.15;;;;;;;-144.30;76.54;84907.44;5069603;28;20516;-59
2023/09/26 05:32:41;;;;;;;17.33;9.27;;;;;;;-144.30;76.35;84923.34;5069252;28;20586;-68
2023/09/26 05:35:10;;;;;;;21.33;10.38;;;;;;;-144.30;76.19;84927.31;5069641;28;20683;-68
2023/09/26 05:37:38;;;;;;;25.27;11.20;;;;;;;-144.30;75.79;84917.38;5056518;28;20200;-68
2023/09/26 05:40:09;;;;;;;32.80;10.43;;;;;;;-144.30;74.18;84823.94;5049577;28;20231;-68
2023/09/26 05:42:38;;;;;;;65.88;17.70;;;;;;;-144.30;72.32;84802.09;5049625;28;20189;-67
2023/09/26 05:45:08;;;;;;;31.27;11.57;;;;;;;-144.30;70.09;84577.50;5049243;28;20304;-68
2023/09/26 05:47:35;;;;;;;26.15;9.05;;;;;;;-144.30;67.50;84537.75;5067326;28;20204;-58
2023/09/26 05:50:03;;;;;;;21.55;8.68;;;;;;;-144.30;66.10;84511.91;5069598;28;20625;-69
2023/09/26 05:52:30;;;;;;;21.65;8.40;;;;;;;-144.30;65.74;84529.81;5069599;28;20208;-68
2023/09/26 05:54:57;;;;;;;18.05;8.93;;;;;;;-144.30;65.09;84498.00;5069126;28;20562;-68
2023/09/26 05:57:23;;;;;;;19.70;8.32;;;;;;;-144.30;64.84;84454.28;5069321;28;20306;-57
2023/09/26 05:59:52;;;;;;;17.02;7.75;;;;;;;-144.30;64.67;84529.81;5069064;28;20220;-58
2023/09/26 06:02:19;;;;;;;14.10;8.77;;;;;;;-144.30;63.74;84430.44;5069404;28;20227;-67
2023/09/26 06:04:46;;;;;;;20.83;8.57;;;;;;;-144.30;63.01;84346.97;5069135;28;20199;-68
2023/09/26 06:07:13;;;;;;;28.33;8.68;;;;;;;-144.30;61.33;84289.31;5069179;28;20432;-68
2023/09/26 06:09:40;;;;;;;22.33;7.53;;;;;;;-144.30;59.06;84110.47;5068799;28;20649;-68
2023/09/26 06:12:08;;;;;;;34.88;8.35;;;;;;;-144.30;55.65;83937.59;5069202;28;20202;-58
2023/09/26 06:14:35;;;;;;;26.00;9.02;;;;;;;-144.30;54.56;83852.16;5068846;28;20320;-68
2023/09/26 06:17:03;;;;;;;23.20;7.82;;;;;;;-144.30;52.76;83734.91;5068405;28;20196;-70
2023/09/26 06:19:30;;;;;;;53.45;9.70;;;;;;;-144.30;51.62;83579.94;5069220;28;20672;-68
2023/09/26 06:21:57;;;;;;;26.20;7.57;;;;;;;-144.30;48.16;83266.03;5069608;28;20200;-59
2023/09/26 06:24:24;;;;;;;16.08;7.45;;;;;;;-144.30;45.97;83138.88;5068969;28;20196;-58
2023/09/26 06:26:51;;;;;;;41.65;8.23;;;;;;;-144.30;46.24;83264.03;5068662;28;20206;-57
2023/09/26 06:29:18;;;;;;;23.02;7.38;;;;;;;-144.30;48.01;83512.38;5068896;28;20199;-58
2023/09/26 06:31:45;;;;;;;32.03;9.15;;;;;;;-144.30;50.31;83653.44;5071347;28;20524;-57
2023/09/26 06:34:14;;;;;;;28.02;8.48;;;;;;;-144.30;52.27;83828.31;5072932;28;20199;-57
2023/09/26 06:36:42;;;;;;;17.27;7.32;;;;;;;-144.30;54.18;83929.66;5072410;28;20192;-58
2023/09/26 06:39:11;;;;;;;23.73;8.45;;;;;;;-144.30;55.62;84068.75;5073195;28;20641;-57
2023/09/26 06:41:38;;;;;;;14.20;7.20;;;;;;;-144.30;57.28;84128.34;5072718;28;20231;-58
2023/09/26 06:44:05;;;;;;;15.70;8.00;;;;;;;-144.30;55.69;83957.47;5072890;28;20191;-69
2023/09/26 06:46:33;;;;;;;16.30;7.35;;;;;;;-144.30;50.51;83542.19;5072465;28;20725;-67
2023/09/26 06:48:59;;;;;;;17.30;7.35;;;;;;;-144.30;46.72;83182.56;5072613;28;20214;-68
2023/09/26 06:51:30;;;;;;;20.52;7.25;;;;;;;-144.30;42.60;82767.38;5072489;28;20196;-67
2023/09/26 06:53:57;;;;;;;21.60;7.18;;;;;;;-144.30;39.48;82407.88;5072602;28;20195;-68
2023/09/26 06:56:23;;;;;;;17.17;8.70;;;;;;;-144.30;37.43;82078.16;5072653;28;20223;-68
2023/09/26 06:58:50;;;;;;;14.45;6.28;;;;;;;-144.30;35.78;81835.88;5072328;28;20200;-68
2023/09/26 07:01:18;;;;;;;20.67;6.25;;;;;;;-144.30;34.16;81605.53;5072018;28;20749;-57
2023/09/26 07:03:46;;;;;;;10.60;6.72;;;;;;;-144.30;32.81;81363.28;5072060;28;20196;-60
2023/09/26 07:06:14;;;;;;;22.48;6.18;;;;;;;-144.30;31.32;81047.56;5072173;28;20290;-68
2023/09/26 07:08:44;;;;;;;23.60;6.22;;;;;;;-144.30;30.38;80811.31;5072328;28;20249;-66
2023/09/26 07:11:11;;;;;;;13.73;6.22;;;;;;;-144.30;29.77;80644.56;5072438;28;20195;-66
2023/09/26 07:13:39;;;;;;;9.68;6.72;;;;;;;-144.30;28.96;80438.09;5072135;28;20620;-67
2023/09/26 07:16:08;;;;;;;18.67;7.18;;;;;;;-144.30;29.00;80674.34;5071953;28;20288;-58
2023/09/26 07:18:36;;;;;;;18.70;6.68;;;;;;;-144.30;29.70;80934.41;5072011;28;20204;-66
2023/09/26 07:21:06;;;;;;;30.35;8.10;;;;;;;-144.30;30.36;81148.84;5072234;28;20608;-67
2023/09/26 07:23:33;;;;;;;13.60;6.53;;;;;;;-144.30;31.69;81518.16;5072362;28;20217;-66
2023/09/26 07:26:12;;;;;;;21.20;7.25;;;;;;;-144.30;32.22;81577.72;5071641;28;20195;-59
2023/09/26 07:28:39;;;;;;;20.95;6.88;;;;;;;-144.30;32.68;81736.59;5072000;28;20294;-65
2023/09/26 07:31:08;;;;;;;21.13;6.38;;;;;;;-144.30;33.82;82133.78;5071540;28;20737;-66
2023/09/26 07:33:35;;;;;;;19.05;6.55;;;;;;;-144.30;35.75;82507.19;5072375;28;20199;-66
2023/09/26 07:36:03;;;;;;;10.40;5.22;;;;;;;-144.30;37.04;82666.09;5071637;28;20196;-58
2023/09/26 07:38:30;;;;;;;19.88;5.80;;;;;;;-144.30;38.10;82848.84;5071830;28;20196;-59
2023/09/26 07:40:56;;;;;;;14.20;5.10;;;;;;;-144.30;37.71;82805.13;5071302;28;20307;-59
2023/09/26 07:43:29;;;;;;;15.45;6.20;;;;;;;-144.30;38.18;82793.22;5070922;28;20702;-59
2023/09/26 07:45:57;;;;;;;16.98;6.18;;;;;;;-144.30;38.94;82870.69;5070918;28;20200;-60
2023/09/26 07:48:24;;;;;;;13.95;6.03;;;;;;;-144.30;39.75;82995.84;5071579;28;20200;-58
2023/09/26 07:53:45;;;;;;;12.48;6.45;;;;;;;-144.30;44.45;83496.50;4890976;22;20311;-67
2023/09/26 07:56:13;;;;;;;12.80;5.68;;;;;;;-144.30;45.15;83601.78;5052547;28;20196;-68
2023/09/26 07:58:41;;;;;;;20.45;6.63;;;;;;;-144.30;44.97;83526.28;5052779;28;20291;-66
2023/09/26 08:01:09;;;;;;;23.75;6.63;;;;;;;-144.30;45.50;83512.38;5052899;28;20631;-67
2023/09/26 08:03:38;;;;;;;12.35;6.50;;;;;;;-144.30;46.46;83611.72;5052654;28;20228;-66
2023/09/26 08:06:06;;;;;;;10.15;5.97;;;;;;;-144.30;46.41;83615.69;5052057;28;20201;-67
2023/09/26 08:08:34;;;;;;;273.95;26.90;;;;;;;-144.30;46.61;83572.00;5053045;28;20668;-67
2023/09/26 08:11:07;;;;;;;40.10;8.30;;;;;;;-144.30;46.02;83581.91;5052759;28;20192;-67
2023/09/26 08:13:34;;;;;;;19.92;7.32;;;;;;;-144.30;45.79;83564.03;5052300;28;20197;-67
2023/09/26 08:16:02;;;;;;;29.42;7.75;;;;;;;-144.30;45.95;84468.19;5050247;28;20232;-68
2023/09/26 08:18:29;;;;;;;15.02;7.07;;;;;;;-144.30;45.97;83484.56;5046261;28;20224;-66
2023/09/26 08:20:57;;;;;;;10.35;6.55;;;;;;;-144.30;45.95;83591.84;5050160;28;20220;-69
2023/09/26 08:23:24;;;;;;;27.20;6.25;;;;;;;-144.30;46.07;83595.81;5051447;28;20193;-68
2023/09/26 08:25:56;;;;;;;21.42;5.82;;;;;;;-144.30;46.47;83639.53;5044753;28;20193;-69
2023/09/26 08:28:25;;;;;;;19.48;7.03;;;;;;;-144.30;46.50;83609.75;5051993;28;20200;-68
2023/09/26 08:30:56;;;;;;;20.30;6.50;;;;;;;-144.30;46.74;83649.47;5051948;28;20199;-69
2023/09/26 08:33:24;;;;;;;13.25;5.95;;;;;;;-144.30;46.14;83603.78;5051841;28;20204;-68
2023/09/26 08:35:52;;;;;;;21.50;8.73;;;;;;;-144.30;46.26;83611.72;5052207;28;20206;-68
2023/09/26 08:38:18;;;;;;;21.77;7.05;;;;;;;-144.30;45.90;83562.06;5052340;28;20712;-68
2023/09/26 08:40:46;;;;;;;21.40;6.38;;;;;;;-144.30;45.76;83591.84;5051656;28;20224;-69
2023/09/26 08:43:14;;;;;;;17.42;5.53;;;;;;;-144.30;45.94;83633.59;5051840;28;20201;-69
2023/09/26 08:45:41;;;;;;;9.82;6.03;;;;;;;-144.30;46.33;83673.31;5051513;28;20204;-69
2023/09/26 08:48:08;;;;;;;17.00;5.72;;;;;;;-144.30;47.36;83703.13;5051916;28;20752;-63
2023/09/26 08:50:37;;;;;;;15.77;5.85;;;;;;;-144.30;47.96;83770.69;5045367;28;21338;-63
2023/09/26 08:53:04;;;;;;;19.85;6.40;;;;;;;-144.30;48.33;83728.97;5039694;28;20228;-63
2023/09/26 08:55:31;;;;;;;17.48;5.50;;;;;;;-144.30;47.25;83719.03;5040075;28;20240;-64
2023/09/26 08:57:58;;;;;;;9.27;4.88;;;;;;;-144.30;46.74;83667.34;5046391;28;20280;-62
2023/09/26 09:00:27;;;;;;;16.23;5.53;;;;;;;-144.30;46.34;83675.31;5047953;28;20224;-68
2023/09/26 09:02:54;;;;;;;14.05;5.50;;;;;;;-144.30;46.62;83663.38;5046191;28;20199;-69
2023/09/26 09:05:22;;;;;;;15.70;4.65;;;;;;;-144.30;46.94;83726.97;5045939;28;20207;-68
2023/09/26 09:07:51;;;;;;;13.63;4.97;;;;;;;-144.30;46.93;83695.19;5050558;28;20614;-68
2023/09/26 09:10:18;;;;;;;15.93;5.00;;;;;;;-144.30;46.90;83699.16;5050610;28;20197;-68
2023/09/26 09:12:49;;;;;;;15.95;5.10;;;;;;;-144.30;46.04;83671.34;5050409;28;20199;-69
2023/09/26 09:15:22;;;;;;;16.35;5.47;;;;;;;-144.30;45.54;83603.78;5050115;28;20275;-70
2023/09/26 09:17:51;;;;;;;18.58;6.07;;;;;;;-144.30;45.38;83552.13;5050126;28;20558;-66
2023/09/26 09:20:30;;;;;;;24.45;5.82;;;;;;;-144.30;44.73;83566.03;5051184;28;20723;-66
2023/09/26 09:23:03;;;;;;;19.15;5.10;;;;;;;-144.30;45.09;83552.13;5051019;28;20204;-64
2023/09/26 09:25:34;;;;;;;20.17;5.05;;;;;;;-144.30;45.42;83558.06;5051510;28;20192;-65
2023/09/26 09:28:03;;;;;;;13.27;5.55;;;;;;;-144.30;46.15;83619.66;5050968;28;20200;-65
2023/09/26 09:30:30;;;;;;;14.23;4.97;;;;;;;-144.30;45.19;83544.16;5051128;28;20223;-64
2023/09/26 09:32:57;;;;;;;12.90;4.50;;;;;;;-144.30;44.53;83548.16;5050946;28;20202;-68
2023/09/26 09:35:24;;;;;;;14.23;5.55;;;;;;;-144.30;44.95;83601.78;5050680;28;20254;-69
2023/09/26 09:37:51;;;;;;;14.43;5.63;;;;;;;-144.30;45.42;83645.50;5050475;28;20196;-69
2023/09/26 09:40:22;;;;;;;15.07;5.35;;;;;;;-144.30;45.71;83613.72;5050484;28;20193;-67
2023/09/26 09:42:50;;;;;;;17.52;6.22;;;;;;;-144.30;45.63;83603.78;5039036;28;20194;-68
2023/09/26 09:45:17;;;;;;;16.55;6.55;;;;;;;-144.30;45.88;83687.22;5040048;28;20211;-68
2023/09/26 09:47:46;;;;;;;22.33;6.57;;;;;;;-144.30;45.99;83693.19;5043853;28;20198;-69
2023/09/26 09:50:14;;;;;;;11.13;4.78;;;;;;;-144.30;45.52;83726.97;5043921;28;20287;-69
2023/09/26 09:52:44;;;;;;;13.85;6.05;;;;;;;-144.30;45.74;84233.69;5033093;28;20197;-68
2023/09/26 09:55:16;;;;;;;27.60;6.50;;;;;;;-144.30;45.38;83723.00;5030523;28;20197;-69
2023/09/26 09:57:49;;;;;;;14.85;5.68;;;;;;;-144.30;45.38;83740.88;5030383;28;20296;-69
2023/09/26 10:00:19;;;;;;;15.25;5.72;;;;;;;-144.30;46.02;83683.25;5030512;28;20742;-68
2023/09/26 10:02:46;;;;;;;20.83;5.95;;;;;;;-144.30;46.19;83717.03;5030179;28;20207;-67
2023/09/26 10:05:14;;;;;;;13.88;6.07;;;;;;;-144.30;46.43;83738.88;5030069;28;20199;-68
2023/09/26 10:07:43;;;;;;;14.98;5.90;;;;;;;-144.30;46.55;83673.31;5030333;28;20236;-67
2023/09/26 10:10:13;;;;;;;17.83;5.85;;;;;;;-144.30;45.94;83651.47;5030144;28;20200;-67
2023/09/26 10:12:41;;;;;;;25.77;6.05;;;;;;;-144.30;45.42;84609.31;5030241;28;20677;-63
2023/09/26 10:15:11;;;;;;;12.88;5.43;;;;;;;-144.30;45.51;83724.97;5030165;28;20197;-67
2023/09/26 10:17:41;;;;;;;21.35;5.82;;;;;;;-144.30;45.41;83726.97;5032578;28;20197;-67
2023/09/26 10:20:11;;;;;;;16.42;5.47;;;;;;;-144.30;45.33;83687.22;5050087;28;20196;-64
2023/09/26 10:22:41;;;;;;;16.02;5.70;;;;;;;-144.30;45.22;83681.28;5045375;28;20208;-64
2023/09/26 10:25:12;;;;;;;13.07;5.53;;;;;;;-144.30;45.03;83707.09;5040230;28;20197;-67
2023/09/26 10:27:43;;;;;;;21.35;5.93;;;;;;;-144.30;45.29;83713.06;5037568;28;20216;-70
2023/09/26 10:30:14;;;;;;;15.00;5.05;;;;;;;-144.30;45.15;83665.38;5033882;28;20209;-65
2023/09/26 10:32:43;;;;;;;10.57;5.57;;;;;;;-144.30;44.50;83566.03;5038424;28;20211;-66
2023/09/26 10:35:28;;;;;;;22.42;5.28;;;;;;;-144.30;44.23;83556.09;5043691;28;20197;-70
2023/09/26 10:38:01;;;;;;;12.02;5.13;;;;;;;-144.30;44.31;83581.91;5040397;28;20188;-70
2023/09/26 10:40:29;;;;;;;13.90;4.65;;;;;;;-144.30;43.38;83631.59;5040063;28;20190;-70
2023/09/26 10:42:56;;;;;;;17.38;5.00;;;;;;;-144.30;43.78;83623.66;5038345;28;20246;-65
2023/09/26 10:45:24;;;;;;;15.15;4.65;;;;;;;-144.30;43.83;83589.88;5039381;28;20615;-64
2023/09/26 10:47:51;;;;;;;14.32;5.35;;;;;;;-144.30;43.82;83564.03;5041263;28;20276;-66
2023/09/26 10:50:20;;;;;;;13.05;5.15;;;;;;;-144.30;43.10;83498.47;5038668;28;20699;-66
2023/09/26 10:52:48;;;;;;;17.58;4.72;;;;;;;-144.30;43.75;83540.19;5038551;28;21600;-66
2023/09/26 10:55:16;;;;;;;10.02;4.45;;;;;;;-144.30;44.06;83530.25;5038408;28;20193;-66
2023/09/26 10:57:44;;;;;;;13.80;4.63;;;;;;;-144.30;44.32;83591.84;5039318;28;20185;-65
2023/09/26 11:00:15;;;;;;;13.32;4.70;;;;;;;-144.30;44.21;83556.09;5040325;28;20205;-65
2023/09/26 11:02:44;;;;;;;16.63;4.80;;;;;;;-144.30;44.21;83568.00;5036541;28;20213;-70
2023/09/26 11:05:12;;;;;;;16.45;4.97;;;;;;;-144.30;44.37;83526.28;5040845;28;20205;-66
2023/09/26 11:07:40;;;;;;;17.75;4.70;;;;;;;-144.30;44.34;83568.00;5038314;28;20190;-66
2023/09/26 11:10:12;;;;;;;12.40;4.65;;;;;;;-144.30;43.99;83544.16;5039177;28;20587;-65
2023/09/26 11:12:39;;;;;;;18.23;5.40;;;;;;;-144.30;43.57;83516.34;5038316;28;20646;-66
2023/09/26 11:15:08;;;;;;;13.88;4.70;;;;;;;-144.30;43.50;83506.41;5039011;28;20658;-70